This is the latest recevied weather packets stored in our database for station/object IW1QQG-13. If no packets are shown the sender has not sent any weather packets the latest 10 day(s).
| Time | Temp. | Humidity | Pressure | Rain* | Wind** | Luminosity | Snow |
|---|---|---|---|---|---|---|---|
| 1776917771 | 12.78° C | 55% | 1022.4 hPa | 0 mm | - | 0 W/m² | - |
| 1776917171 | 13.89° C | 51% | 1022.4 hPa | 0 mm | - | 0 W/m² | - |
| 1776916571 | 13.89° C | 53% | 1022 hPa | 0 mm | - | 0 W/m² | - |
| 1776915971 | 13.89° C | 53% | 1022 hPa | 0 mm | - | 0 W/m² | - |
| 1776915371 | 13.89° C | 51% | 1022 hPa | 0 mm | - | 0 W/m² | - |
| 1776914771 | 13.89° C | 51% | 1022 hPa | 0 mm | - | 0 W/m² | - |
| 1776914171 | 13.89° C | 51% | 1022 hPa | 0 mm | - | 0 W/m² | - |
| 1776913571 | 13.33° C | 51% | 1022 hPa | 0 mm | - | 0 W/m² | - |
| 1776912974 | 13.33° C | 52% | 1022 hPa | 0 mm | - | 0 W/m² | - |
| 1776911771 | 12.22° C | 53% | 1021.7 hPa | 0 mm | - | 0 W/m² | - |
| 1776911171 | 12.22° C | 53% | 1021.7 hPa | 0 mm | - | 0 W/m² | - |
| 1776910574 | 11.67° C | 57% | 1021.7 hPa | 0 mm | - | 0 W/m² | - |
| 1776909971 | 11.67° C | 56% | 1021.7 hPa | 0 mm | - | 0 W/m² | - |
| 1776909371 | 12.22° C | 54% | 1021.7 hPa | 0 mm | - | 0 W/m² | - |
| 1776908771 | 11.67° C | 56% | 1021.7 hPa | 0 mm | - | 0 W/m² | - |
| 1776908171 | 12.22° C | 56% | 1021.7 hPa | 0 mm | - | 0 W/m² | - |
| 1776907571 | 12.22° C | 56% | 1021.7 hPa | 0 mm | - | 0 W/m² | - |
| 1776906970 | 12.22° C | 56% | 1021.3 hPa | 0 mm | - | 0 W/m² | - |
| 1776906371 | 12.22° C | 56% | 1021.3 hPa | 0 mm | - | 0 W/m² | - |
| 1776905770 | 12.22° C | 56% | 1021.3 hPa | 0 mm | - | 0 W/m² | - |
| 1776905171 | 12.22° C | 55% | 1021.3 hPa | 0 mm | - | 0 W/m² | - |
| 1776904570 | 12.78° C | 56% | 1021.3 hPa | 0 mm | - | 0 W/m² | - |
| 1776903970 | 12.78° C | 54% | 1021.3 hPa | 0 mm | - | 0 W/m² | - |
| 1776903370 | 13.33° C | 51% | 1021.3 hPa | 0 mm | - | 0 W/m² | - |
| 1776902770 | 13.89° C | 51% | 1021.3 hPa | 0 mm | - | 0 W/m² | - |
* Rain latest hour (hover to see other rain measurements)
** Current wind speed in m/s (hover to see current wind gust speed)